Kyriakos Elia

Recruteur - Apollon
21 Oct 2027
Jeudi
Processus

Personnalité

Adaptabilité (8) Ambition (5) Controverse (11) Loyauté (11) Pression (16) Professionnalisme (17) Sportivité (10) Tempérament (18)

Profil

Style d'entraînement Démocratique
Diplôme Continental B
Détermination 10
Gestion des joueurs 7
Motivation 9
Discipline 11
Satisfaction professionnelle
100%
Fatigue
0%
Rôle Recruteur
Salaire 22.8K p/s
Contrat 14.03.2030

Performance

Comportement Bon
Efficacité de l'entraînement
39%
Développement des joueurs
40%
Prévention des blessures
55%
Mise en place tactique
30%

Événements récents

A participé à une réunion de recrutement maintenant
A participé à une réunion de recrutement maintenant
A évalué un joueur 7j
A observé un match 7j
A observé un match 7j
A observé un match 7j
A observé un match 7j
A évalué un joueur 7j

Suivi en cours

73
Joueur Club Statut Capacité Confiance Observé Dernière observation Dernier vote
Facundo Martínez Montevideo City Torque Actif 94 / 93 40% 1 20.10.2027 -
Fredrik Ardraa Stromsgodset Actif 115 / 100 40% 1 20.10.2027 -
Alex Amaefula Kun Khalifat Actif 94 / 95 40% 1 17.10.2027 -
Juan Román Gimenez Estudiantes Actif 85 / 102 40% 2 15.10.2027 -
Tobi Ige Bendel Insurance Actif 97 / 107 40% 1 15.10.2027 -
Onuorah Onyedika Kun Khalifat Actif 100 / 80 40% 1 14.10.2027 -
Jardell Kanga Ilves Actif 114 / 86 40% 1 14.10.2027 -
Dominik Chong Qui Atlanta United FC Actif 101 / 93 40% 1 11.10.2027 -
Francisco Rincon Llaneros Actif 96 / 115 40% 1 11.10.2027 -
Hajime Hidaka Omiya Ardija Actif 81 / 81 40% 1 10.10.2027 -
Daniel Ferraresi Llaneros Actif 74 / 85 40% 1 10.10.2027 -
Samuel Posada Leones Actif 86 / 85 40% 1 09.10.2027 -
Wisdom Udom Bendel Insurance Actif 87 / 89 40% 1 09.10.2027 -
Maren Kefas Plateau United Actif 108 / 100 40% 1 08.10.2027 -
Tiago Gordillo San Miguel Actif 84 / 90 40% 1 08.10.2027 -
Tiziano Cabrera Central Norte Actif 96 / 93 40% 1 07.10.2027 -
Harbor Miller LA Galaxy Actif 86 / 109 40% 1 07.10.2027 -
Francisco Triver River Plate Actif 84 / 93 40% 1 06.10.2027 -
Gustavo Lozano Metropolitanos Actif 88 / 95 40% 1 07.09.2027 -
Daniel Gomez Valledupar Actif 94 / 101 40% 1 07.09.2027 -
Hassan Beja AFC Leopards Actif 93 / 101 40% 1 06.09.2027 -
Sunday Aniebet Enyimba Actif 80 / 82 40% 1 06.09.2027 -
Jofre Torrents Ajax Actif 110 / 143 40% 3 23.06.2027 -
Ángel Aguayo Sol de America Actif 93 / 103 40% 1 23.06.2027 -
Latrell Aken Groningen Actif 104 / 118 40% 2 18.06.2027 -
Nikita Kononenko Metallurg Actif 64 / 74 40% 1 18.06.2027 -
Fuzy Taylor Medeama Actif 79 / 79 40% 1 17.06.2027 -
Mohamed Bolivar Barranquilla Actif 82 / 92 40% 1 17.06.2027 -
Kostas Stafylidis APOEL Actif 130 / 114 55% 1 14.06.2027 -
Julio Patiño Fortaleza CEIF Actif 86 / 85 40% 1 08.06.2027 -
Daniel Mancini APOEL Actif 128 / 113 55% 1 01.06.2027 Observer
Yussif Saidu Zaragoza Actif 136 / 113 40% 3 31.05.2027 -
Sascha Britschgi Padova Actif 116 / 128 40% 2 31.05.2027 -
Tiago Freitas Benfica Actif 128 / 106 40% 2 26.05.2027 -
Alexandro Maidana Talleres Actif 108 / 125 40% 2 24.05.2027 -
Tobias Slotsager Casertana Actif 114 / 119 40% 1 24.05.2027 -
Eduardo Felicíssimo Sporting CP Actif 107 / 109 40% 2 17.05.2027 -
Finley McAllister Grimsby Town Actif 84 / 116 40% 2 15.05.2027 -
Nazareno Kihm Ferro Carril Oeste Actif 117 / 106 40% 1 12.05.2027 -
Percy Jali Free State Stars Actif 110 / 117 40% 1 12.05.2027 -
Surprise Manthosi Polokwane City Actif 109 / 102 40% 2 11.05.2027 -
Hlompho Lorch Ajax Cape Town Actif 92 / 87 40% 2 11.05.2027 -
Daniel Kelly Oxford United Actif 121 / 113 40% 5 07.05.2027 Observer
Juan Giménez Celta Actif 111 / 112 40% 3 07.05.2027 -
Edoardo Tartaglia Renate Actif 91 / 104 40% 1 04.05.2027 -
Sabil Hansen Randers Actif 109 / 129 40% 1 27.04.2027 -
Simone Kosijer Triestina Actif 79 / 107 40% 1 24.04.2027 -
João Capucho Benfica Actif 101 / 99 40% 1 17.04.2027 -
Karim Coulibaly RC Strasbourg Actif 126 / 116 40% 1 17.04.2027 -
Timotej Hranica MSK Zilina Actif 111 / 108 40% 1 13.04.2027 -
Zaïd BafdilI Sporting CP Actif 94 / 119 40% 1 13.04.2027 -
Lucas Mbamba Westerlo Actif 83 / 87 40% 1 03.04.2027 -
Ricky Atletico Venezuela Actif 90 / 94 40% 1 02.04.2027 -
Sean Fusire Sheffield Wednesday Actif 117 / 113 40% 1 02.04.2027 -
Dmitry Pestryakov Dinamo Moscow Actif 117 / 105 40% 3 26.03.2027 -
Timofey Marinkin Dinamo Moscow Actif 80 / 105 40% 1 26.03.2027 -
Kai Andrews Coventry City Actif 116 / 130 40% 1 25.03.2027 -
Camilo Rey Domenech Boca Juniors Actif 118 / 122 40% 1 23.03.2027 -
Rayhan Momade Sporting CP Actif 105 / 115 40% 1 22.03.2027 -
Santiago Fernández Talleres Actif 107 / 136 40% 1 21.03.2027 -
Bradley de Jesus Tondela Actif 80 / 89 40% 1 17.03.2027 -
Elton Fikaj Piast Actif 104 / 80 40% 1 03.03.2027 -
Mpho Khethang AS Police Actif 98 / 78 40% 1 01.03.2027 -
Santino Pasini Nea Salamis Actif 95 / 100 40% 1 01.03.2027 -
Gonçalo Oliveira Benfica Actif 106 / 102 40% 1 13.02.2027 -
Zane Albarus Cambridge United Actif 93 / 92 40% 1 04.02.2027 -
Tomy Carbonell Real Sociedad Actif 101 / 102 40% 1 03.02.2027 -
Dylan Gorosito Villarreal Actif 124 / 126 40% 2 31.01.2027 -
Dmitry Ivannikov Chaika Actif 81 / 81 40% 1 31.01.2027 -
Freddy Murillo Valencia Actif 112 / 118 40% 1 29.01.2027 -
Ezra Mayers West Ham United Actif 109 / 113 40% 1 28.01.2027 -
Marek Skriniar MSK Zilina Actif 102 / 96 40% 1 25.01.2027 -
Martim Cunha Porto Actif 95 / 93 40% 1 25.01.2027 -